createdAt,value
2023-11-24T00:06:58.603Z,5
2023-11-24T00:15:44.674Z,5.1
2023-11-24T00:23:29.831Z,5
2023-11-24T00:31:45.469Z,4.9
2023-11-24T00:40:01.147Z,4.9
2023-11-24T00:48:16.677Z,4.8
2023-11-24T00:56:32.328Z,4.7
2023-11-24T01:04:47.920Z,4.7
2023-11-24T01:13:03.535Z,4.5
2023-11-24T01:21:19.114Z,4.4
2023-11-24T01:30:05.383Z,4.2
2023-11-24T01:46:05.850Z,4
2023-11-24T01:54:36.810Z,4
2023-11-24T02:02:37.044Z,4.1
2023-11-24T02:10:52.583Z,4.2
2023-11-24T02:19:08.328Z,4.2
2023-11-24T02:27:23.742Z,4.2
2023-11-24T02:35:39.404Z,4.2
2023-11-24T02:43:55.018Z,4.2
2023-11-24T02:53:10.989Z,4.2
2023-11-24T03:00:26.104Z,4.2
2023-11-24T03:08:41.641Z,4.2
2023-11-24T03:25:43.451Z,4.1
2023-11-24T03:33:28.394Z,4.2
2023-11-24T03:41:43.935Z,4.3
2023-11-24T03:49:59.516Z,4.2
2023-11-24T03:58:15.114Z,4.1
2023-11-24T04:06:30.771Z,4.1
2023-11-24T04:14:46.275Z,4.1
2023-11-24T04:23:01.868Z,3.9
2023-11-24T04:31:17.415Z,4
2023-11-24T04:39:32.995Z,3.8
2023-11-24T04:47:48.527Z,3.9
2023-11-24T04:56:04.057Z,3.9
2023-11-24T05:04:19.749Z,3.9
2023-11-24T05:12:35.248Z,3.9
2023-11-24T05:20:50.741Z,4
2023-11-24T05:29:06.378Z,4
2023-11-24T05:38:22.507Z,4
2023-11-24T05:45:44.772Z,4.1
2023-11-24T05:53:53.099Z,4.1
2023-11-24T06:02:08.711Z,4.2
2023-11-24T06:10:24.231Z,4.2
2023-11-24T06:18:39.836Z,4.3
2023-11-24T06:26:55.446Z,4.4
2023-11-24T06:35:11.034Z,4.5
2023-11-24T06:43:26.605Z,4.4
2023-11-24T06:51:42.334Z,4.4
2023-11-24T06:59:57.797Z,4.4
2023-11-24T07:08:13.391Z,4.5
2023-11-24T07:16:29.039Z,4.4
2023-11-24T07:24:44.611Z,4.6
2023-11-24T07:33:00.233Z,4.6
2023-11-24T07:41:15.821Z,4.6
2023-11-24T07:49:31.473Z,4.7
2023-11-24T07:57:47.032Z,4.6
2023-11-24T08:06:02.658Z,4.7
2023-11-24T08:14:18.234Z,4.7
2023-11-24T08:30:49.528Z,4.9
2023-11-24T08:39:05.126Z,4.9
2023-11-24T08:47:20.730Z,5.2
2023-11-24T08:55:36.337Z,5.5
2023-11-24T09:03:52.014Z,5.6
2023-11-24T09:12:07.596Z,5.9
2023-11-24T09:20:23.241Z,5.9
2023-11-24T09:28:38.894Z,6
2023-11-24T09:36:54.537Z,6.1
2023-11-24T09:45:10.170Z,6.1
2023-11-24T09:53:25.853Z,6.6
2023-11-24T10:09:57.175Z,6.1
2023-11-24T10:18:12.801Z,6.4
2023-11-24T10:26:28.438Z,6.3
2023-11-24T10:34:44.164Z,6.8
2023-11-24T10:42:59.926Z,7.4
2023-11-24T10:51:15.475Z,7.5
2023-11-24T10:59:31.173Z,7.5
2023-11-24T11:07:46.932Z,7.7
2023-11-24T11:16:02.663Z,7.5
2023-11-24T11:24:18.363Z,7.4
2023-11-24T11:32:34.103Z,7.1
2023-11-24T11:40:49.741Z,6.9
2023-11-24T11:49:05.416Z,7
2023-11-24T11:57:21.085Z,6.9
2023-11-24T12:05:36.778Z,7
2023-11-24T12:13:52.448Z,7
2023-11-24T12:22:08.147Z,7.3
2023-11-24T12:30:23.845Z,8.2
2023-11-24T12:38:39.589Z,10.8
2023-11-24T12:46:55.468Z,11.3
2023-11-24T12:55:11.292Z,11.4
2023-11-24T13:03:27.120Z,11.1
2023-11-24T13:11:43.055Z,10.1
2023-11-24T13:19:58.749Z,10.1
2023-11-24T13:28:14.552Z,9.7
2023-11-24T13:36:30.311Z,9.2
2023-11-24T13:44:46.294Z,9
2023-11-24T13:53:01.830Z,8.7
2023-11-24T14:01:17.888Z,8.5
2023-11-24T14:09:33.530Z,8.3
2023-11-24T14:17:49.034Z,8.1
2023-11-24T14:26:04.730Z,8.1
2023-11-24T14:34:20.646Z,7.9
2023-11-24T14:42:36.219Z,7.6
2023-11-24T14:50:51.929Z,7.8
2023-11-24T14:59:07.616Z,7.8
2023-11-24T15:07:23.423Z,7.7
2023-11-24T15:15:39.074Z,7.9
2023-11-24T15:23:54.754Z,7.9
2023-11-24T15:32:10.753Z,7.8
2023-11-24T15:40:26.247Z,7.8
2023-11-24T15:48:42.028Z,7.8
2023-11-24T15:56:57.697Z,7.7
2023-11-24T16:05:13.389Z,7.4
2023-11-24T16:13:29.108Z,7.4
2023-11-24T16:21:44.857Z,7.5
2023-11-24T16:30:00.601Z,7.4
2023-11-24T16:38:16.285Z,7.1
2023-11-24T16:46:32.007Z,6.9
2023-11-24T16:54:47.612Z,6.6
2023-11-24T17:03:03.403Z,6.2
2023-11-24T17:11:18.966Z,6.1
2023-11-24T17:19:34.831Z,6.3
2023-11-24T17:27:50.285Z,6.4
2023-11-24T17:36:05.970Z,6.3
2023-11-24T17:44:21.615Z,6.2
2023-11-24T17:52:37.274Z,6
2023-11-24T18:00:53.029Z,5.2
2023-11-24T18:09:08.556Z,4.9
2023-11-24T18:17:24.142Z,5
2023-11-24T18:25:40.237Z,4.9
2023-11-24T18:33:55.419Z,4.7
2023-11-24T18:42:10.958Z,4.6
2023-11-24T18:50:26.557Z,4.4
2023-11-24T18:58:42.124Z,4.5
2023-11-24T19:06:57.693Z,4.5
2023-11-24T19:15:13.287Z,4.3
2023-11-24T19:23:28.856Z,4.2
2023-11-24T19:31:44.457Z,4.2
2023-11-24T19:40:00.023Z,4.1
2023-11-24T19:48:15.596Z,4.2
2023-11-24T20:13:10.744Z,4.3
2023-11-24T20:21:17.913Z,4
2023-11-24T20:37:49.008Z,3.5
2023-11-24T20:46:04.759Z,3.6
2023-11-24T20:54:20.094Z,3.4
2023-11-24T21:02:35.715Z,3.3
2023-11-24T21:10:51.310Z,3.3
2023-11-24T21:19:06.770Z,3.5
2023-11-24T21:27:22.277Z,3.5
2023-11-24T21:43:53.400Z,3.1
2023-11-24T22:00:24.463Z,2.9
2023-11-24T22:08:39.963Z,2.7
2023-11-24T22:16:55.590Z,2.5
2023-11-24T22:41:42.067Z,2.7
2023-11-24T22:49:57.518Z,2.8
2023-11-24T23:06:28.539Z,2.8
2023-11-24T23:22:59.711Z,2.6
2023-11-24T23:31:15.185Z,2.7
2023-11-24T23:39:30.634Z,2.7
2023-11-24T23:56:01.664Z,2.7
